createdAt,value
2018-10-01T00:05:01.996Z,8.08
2018-10-01T00:10:56.943Z,5.02
2018-10-01T00:16:51.937Z,5.12
2018-10-01T00:22:46.980Z,7.01
2018-10-01T00:28:41.959Z,4.76
2018-10-01T00:34:36.955Z,8.37
2018-10-01T00:40:32.009Z,6.64
2018-10-01T00:46:27.022Z,5.64
2018-10-01T00:52:21.998Z,8.44
2018-10-01T00:58:16.973Z,6.12
2018-10-01T01:04:11.982Z,6.68
2018-10-01T01:10:07.013Z,30.2
2018-10-01T01:16:02.000Z,19.19
2018-10-01T01:21:57.033Z,16.1
2018-10-01T01:27:51.998Z,18.86
2018-10-01T01:33:47.005Z,17.8
2018-10-01T01:39:42.050Z,16.34
2018-10-01T01:45:37.028Z,21.36
2018-10-01T01:51:32.034Z,40.65
2018-10-01T01:57:27.004Z,42.33
2018-10-01T02:03:22.018Z,27.85
2018-10-01T02:09:17.091Z,17.8
2018-10-01T02:15:12.040Z,25.38
2018-10-01T02:21:07.026Z,22.38
2018-10-01T02:27:02.051Z,38.83
2018-10-01T02:32:57.037Z,49.09
2018-10-01T02:38:52.046Z,25.4
2018-10-01T02:44:47.047Z,27.76
2018-10-01T02:50:42.094Z,42.31
2018-10-01T02:56:37.061Z,28.5
2018-10-01T03:02:32.086Z,31.17
2018-10-01T03:08:27.071Z,31.61
2018-10-01T03:14:22.085Z,32.49
2018-10-01T03:20:17.057Z,35.39
2018-10-01T03:26:12.090Z,34.59
2018-10-01T03:32:07.077Z,34.14
2018-10-01T03:38:02.082Z,36.02
2018-10-01T03:43:57.121Z,42.27
2018-10-01T03:49:52.117Z,46.15
2018-10-01T03:55:47.090Z,44.33
2018-10-01T04:01:42.105Z,45.64
2018-10-01T04:07:37.091Z,42.73
2018-10-01T04:13:32.099Z,51.21
2018-10-01T04:19:27.112Z,50.01
2018-10-01T04:25:22.103Z,60.5
2018-10-01T04:31:17.112Z,63.03
2018-10-01T04:37:12.124Z,68.98
2018-10-01T04:43:07.139Z,70.65
2018-10-01T04:49:02.217Z,66.16
2018-10-01T04:54:57.125Z,60.67
2018-10-01T05:00:52.131Z,69.5
2018-10-01T05:06:47.133Z,78.68
2018-10-01T05:12:42.207Z,86.16
2018-10-01T05:18:37.131Z,87.81
2018-10-01T05:24:32.167Z,77.86
2018-10-01T05:30:27.160Z,80.52
2018-10-01T05:36:22.155Z,80.48
2018-10-01T05:42:17.160Z,69.52
2018-10-01T05:48:12.197Z,68.9
2018-10-01T05:54:07.161Z,66.5
2018-10-01T06:00:02.168Z,62.23
2018-10-01T06:05:57.216Z,61.86
2018-10-01T06:11:52.201Z,62.8
2018-10-01T06:17:47.193Z,60.69
2018-10-01T06:23:42.168Z,59.61
2018-10-01T06:29:37.191Z,65.53
2018-10-01T06:35:32.265Z,67.45
2018-10-01T06:41:27.195Z,63.72
2018-10-01T06:47:22.231Z,68.02
2018-10-01T06:53:17.217Z,78.18
2018-10-01T06:59:12.232Z,70.19
2018-10-01T07:05:07.221Z,78.82
2018-10-01T07:11:02.226Z,81.87
2018-10-01T07:16:57.234Z,72.53
2018-10-01T07:22:52.250Z,86.78
2018-10-01T07:28:47.264Z,103.87
2018-10-01T07:34:42.232Z,93.47
2018-10-01T07:40:37.276Z,92.18
2018-10-01T07:46:32.254Z,87.79
2018-10-01T07:52:27.259Z,82.29
2018-10-01T07:58:22.264Z,74.95
2018-10-01T08:04:17.249Z,74.69
2018-10-01T08:10:12.280Z,77.41
2018-10-01T08:16:07.277Z,69.55
2018-10-01T08:22:02.270Z,66.84
2018-10-01T08:27:57.339Z,61.89
2018-10-01T08:33:52.272Z,63.16
2018-10-01T08:39:47.301Z,59.32
2018-10-01T08:45:42.312Z,53.49
2018-10-01T08:51:37.368Z,39.19
2018-10-01T08:57:32.285Z,45.02
2018-10-01T09:03:27.307Z,40.01
2018-10-01T09:09:22.297Z,36.72
2018-10-01T09:15:17.311Z,50.32
2018-10-01T09:21:12.380Z,48
2018-10-01T09:27:07.310Z,43.02
2018-10-01T09:33:02.306Z,40.58
2018-10-01T09:38:57.303Z,46.55
2018-10-01T09:44:52.345Z,43.4
2018-10-01T09:50:47.314Z,41.65
2018-10-01T09:56:42.433Z,37.17
2018-10-01T10:02:37.454Z,38.81
2018-10-01T10:08:32.375Z,33.09
2018-10-01T10:14:27.433Z,37.72
2018-10-01T10:20:22.386Z,36.23
2018-10-01T10:26:17.405Z,36.96
2018-10-01T10:32:12.521Z,34.22
2018-10-01T10:38:07.442Z,44.14
2018-10-01T10:44:02.409Z,40.07
2018-10-01T10:49:57.417Z,38.59
2018-10-01T10:55:52.405Z,44.57
2018-10-01T11:01:47.392Z,41.6
2018-10-01T11:07:42.440Z,44.56
2018-10-01T11:13:37.386Z,60.51
2018-10-01T11:19:32.397Z,43.96
2018-10-01T11:25:27.528Z,48.46
2018-10-01T11:31:22.476Z,41.51
2018-10-01T11:37:17.397Z,46.46
2018-10-01T11:43:12.402Z,59.61
2018-10-01T11:49:07.416Z,80.31
2018-10-01T11:55:02.411Z,53.17
2018-10-01T12:00:57.600Z,48.24
2018-10-01T12:06:52.420Z,59.58
2018-10-01T12:12:47.523Z,65.01
2018-10-01T12:18:42.435Z,57.97
2018-10-01T12:24:37.439Z,50.55
2018-10-01T12:30:32.501Z,26.8
2018-10-01T12:36:27.451Z,25.22
2018-10-01T12:42:22.443Z,20.06
2018-10-01T12:48:17.447Z,17.42
2018-10-01T12:54:12.438Z,16.32
2018-10-01T13:00:07.565Z,14.07
2018-10-01T13:06:02.505Z,15.41
2018-10-01T13:11:57.472Z,15.11
2018-10-01T13:17:52.471Z,10.65
2018-10-01T13:23:47.466Z,8.62
2018-10-01T13:29:42.524Z,7.77
2018-10-01T13:35:37.524Z,8.05
2018-10-01T13:41:32.484Z,7.89
2018-10-01T13:47:27.488Z,6.43
2018-10-01T13:53:22.533Z,3.9
2018-10-01T13:59:17.501Z,3.9
2018-10-01T14:05:12.500Z,3.81
2018-10-01T14:11:07.532Z,5.63
2018-10-01T14:17:02.510Z,4.53
2018-10-01T14:22:57.540Z,9.53
2018-10-01T14:28:52.551Z,5.87
2018-10-01T14:34:47.560Z,5.05
2018-10-01T14:40:42.571Z,4.85
2018-10-01T14:46:37.563Z,7.73
2018-10-01T14:52:32.526Z,11.27
2018-10-01T14:58:27.558Z,43.6
2018-10-01T15:04:22.544Z,14.86
2018-10-01T15:10:17.584Z,12.65
2018-10-01T15:16:12.715Z,9.67
2018-10-01T15:22:07.586Z,13.51
2018-10-01T15:28:02.602Z,12.67
2018-10-01T15:33:57.562Z,39.28
2018-10-01T15:39:52.563Z,11.93
2018-10-01T15:45:47.610Z,10.12
2018-10-01T15:51:42.603Z,16.11
2018-10-01T15:57:37.586Z,13.21
2018-10-01T16:03:32.578Z,8.8
2018-10-01T16:09:27.597Z,7.44
2018-10-01T16:15:22.614Z,8.71
2018-10-01T16:21:17.581Z,8.04
2018-10-01T16:27:12.610Z,9.07
2018-10-01T16:33:07.596Z,11.18
2018-10-01T16:39:02.680Z,8.25
2018-10-01T16:44:57.628Z,9.23
2018-10-01T16:50:52.630Z,8.95
2018-10-01T16:56:47.651Z,10.22
2018-10-01T17:02:42.626Z,13.72
2018-10-01T17:08:37.647Z,11.78
2018-10-01T17:14:32.658Z,7.35
2018-10-01T17:20:27.643Z,7.4
2018-10-01T17:26:22.691Z,3.37
2018-10-01T17:32:17.641Z,2.28
2018-10-01T17:38:12.697Z,1.89
2018-10-01T17:44:07.647Z,1.8
2018-10-01T17:50:02.689Z,1.53
2018-10-01T17:55:57.718Z,2.26
2018-10-01T18:01:52.661Z,1.48
2018-10-01T18:07:47.644Z,1.11
2018-10-01T18:13:42.696Z,2.36
2018-10-01T18:19:37.673Z,3.34
2018-10-01T18:25:32.694Z,7.15
2018-10-01T18:31:27.712Z,1.5
2018-10-01T18:37:22.700Z,1.09
2018-10-01T18:43:17.729Z,2.55
2018-10-01T18:49:13.397Z,1.56
2018-10-01T18:55:07.676Z,1.2
2018-10-01T19:01:02.702Z,1.12
2018-10-01T19:06:57.718Z,2.84
2018-10-01T19:12:52.746Z,1.01
2018-10-01T19:18:47.750Z,0.89
2018-10-01T19:24:42.730Z,1.33
2018-10-01T19:30:37.817Z,2.16
2018-10-01T19:36:32.738Z,0.98
2018-10-01T19:42:27.749Z,1.06
2018-10-01T19:48:22.727Z,1.24
2018-10-01T19:54:17.801Z,1.46
2018-10-01T20:00:12.784Z,1.11
2018-10-01T20:06:07.754Z,1.39
2018-10-01T20:12:02.823Z,1.73
2018-10-01T20:17:57.746Z,2.12
2018-10-01T20:23:52.781Z,1.34
2018-10-01T20:29:47.951Z,1.63
2018-10-01T20:35:42.883Z,1.85
2018-10-01T20:41:37.774Z,1.93
2018-10-01T20:47:32.844Z,2.07
2018-10-01T20:53:27.914Z,2.36
2018-10-01T20:59:22.821Z,2.5
2018-10-01T21:05:17.799Z,2.73
2018-10-01T21:11:12.776Z,3.77
2018-10-01T21:17:07.852Z,3.51
2018-10-01T21:23:02.777Z,4.03
2018-10-01T21:28:57.807Z,3.24
2018-10-01T21:34:52.842Z,3.75
2018-10-01T21:40:47.833Z,2.94
2018-10-01T21:46:42.859Z,2.48
2018-10-01T21:52:37.830Z,3.08
2018-10-01T21:58:32.893Z,3.25
2018-10-01T22:04:27.846Z,3.15
2018-10-01T22:10:22.832Z,3.22
2018-10-01T22:16:17.840Z,2.57
2018-10-01T22:22:12.819Z,2.14
2018-10-01T22:28:07.886Z,1.37
2018-10-01T22:34:02.857Z,1.33
2018-10-01T22:39:57.825Z,1.34
2018-10-01T22:45:52.872Z,1.54
2018-10-01T22:51:47.874Z,1.6
2018-10-01T22:57:42.847Z,1.17
2018-10-01T23:03:37.870Z,1.22
2018-10-01T23:09:32.861Z,2
2018-10-01T23:15:27.872Z,0.97
2018-10-01T23:21:22.864Z,0.91
2018-10-01T23:27:17.864Z,1.87
2018-10-01T23:33:12.872Z,1.09
2018-10-01T23:39:07.904Z,1.24
2018-10-01T23:45:02.881Z,1.78
2018-10-01T23:50:57.915Z,1
2018-10-01T23:56:52.900Z,2.42
